createdAt,value
2023-12-20T00:00:06.258Z,51.50
2023-12-20T00:01:06.284Z,51.13
2023-12-20T00:02:06.331Z,50.24
2023-12-20T00:03:06.279Z,51.69
2023-12-20T00:04:06.323Z,50.76
2023-12-20T00:05:06.288Z,52.51
2023-12-20T00:06:06.250Z,51.19
2023-12-20T00:07:06.329Z,51.47
2023-12-20T00:08:06.401Z,50.77
2023-12-20T00:09:06.285Z,52.14
2023-12-20T00:10:06.370Z,51.50
2023-12-20T00:11:06.265Z,51.78
2023-12-20T00:12:06.301Z,53.12
2023-12-20T00:13:06.269Z,52.02
2023-12-20T00:14:06.284Z,52.12
2023-12-20T00:15:06.265Z,51.52
2023-12-20T00:16:06.324Z,51.22
2023-12-20T00:17:06.279Z,52.11
2023-12-20T00:18:06.381Z,53.09
2023-12-20T00:19:06.363Z,50.58
2023-12-20T00:20:06.406Z,52.59
2023-12-20T00:21:06.286Z,50.51
2023-12-20T00:22:06.344Z,52.62
2023-12-20T00:23:06.293Z,52.27
2023-12-20T00:24:06.288Z,51.10
2023-12-20T00:25:06.321Z,51.16
2023-12-20T00:26:06.304Z,50.94
2023-12-20T00:27:06.285Z,50.86
2023-12-20T00:28:06.328Z,51.35
2023-12-20T00:29:06.295Z,51.15
2023-12-20T00:30:06.347Z,50.57
2023-12-20T00:31:06.623Z,50.25
2023-12-20T00:32:06.307Z,51.63
2023-12-20T00:33:06.386Z,50.98
2023-12-20T00:34:06.393Z,51.35
2023-12-20T00:35:06.309Z,51.02
2023-12-20T00:36:06.330Z,50.71
2023-12-20T00:37:28.655Z,50.82
2023-12-20T00:38:06.423Z,51.17
2023-12-20T00:39:06.374Z,51.81
2023-12-20T00:40:06.446Z,52.54
2023-12-20T00:41:06.371Z,53.31
2023-12-20T04:39:40.324Z,50.00
2023-12-20T04:40:40.277Z,50.00
2023-12-20T04:41:40.262Z,50.00
2023-12-20T04:42:40.310Z,50.00
2023-12-20T04:43:40.268Z,50.00
2023-12-20T04:44:40.289Z,50.00
2023-12-20T04:45:40.281Z,50.64
2023-12-20T04:46:40.264Z,50.00
2023-12-20T04:47:40.299Z,50.92
2023-12-20T04:48:40.355Z,50.09
2023-12-20T04:49:40.350Z,50.90
2023-12-20T04:50:40.279Z,51.77
2023-12-20T04:51:40.292Z,50.00
2023-12-20T04:52:40.311Z,50.53
2023-12-20T04:53:40.293Z,50.48
2023-12-20T04:54:42.618Z,50.55
2023-12-20T04:55:40.430Z,50.62
2023-12-20T04:56:40.294Z,50.65
2023-12-20T04:57:40.304Z,50.25
2023-12-20T04:58:40.327Z,49.51
2023-12-20T04:59:40.297Z,48.71
2023-12-20T05:00:40.435Z,51.72
2023-12-20T05:01:40.384Z,51.91
2023-12-20T05:02:40.307Z,51.31
2023-12-20T05:03:40.332Z,51.54
2023-12-20T05:04:40.305Z,51.85
2023-12-20T05:05:40.408Z,51.05
2023-12-20T05:06:40.382Z,52.13
2023-12-20T05:07:40.437Z,51.94
2023-12-20T05:08:40.297Z,51.85
2023-12-20T05:09:40.364Z,53.66
2023-12-20T05:10:40.321Z,52.64
2023-12-20T05:11:40.316Z,51.18
2023-12-20T05:12:40.345Z,51.55
2023-12-20T05:14:40.309Z,53.09
2023-12-20T05:15:40.345Z,51.02
2023-12-20T05:16:40.327Z,52.82
2023-12-20T05:17:40.389Z,52.02
2023-12-20T05:18:40.394Z,53.22
2023-12-20T05:19:40.442Z,52.03
2023-12-20T05:20:40.334Z,52.37
2023-12-20T05:21:40.340Z,52.07
2023-12-20T05:22:40.322Z,51.95
2023-12-20T05:23:40.326Z,51.66
2023-12-20T05:24:40.372Z,51.51
2023-12-20T05:25:40.360Z,52.42
2023-12-20T05:26:40.398Z,53.12
2023-12-20T05:27:40.498Z,51.51
2023-12-20T05:28:40.493Z,53.76
2023-12-20T05:29:40.539Z,53.15
2023-12-20T05:30:40.637Z,53.06
2023-12-20T05:31:40.623Z,52.30
2023-12-20T05:32:40.788Z,53.64
2023-12-20T05:33:40.845Z,53.45
2023-12-20T05:34:40.818Z,52.54
2023-12-20T05:35:40.790Z,53.63
2023-12-20T05:36:40.825Z,52.47
2023-12-20T05:37:40.874Z,53.69
2023-12-20T05:38:40.910Z,54.28
2023-12-20T05:39:40.985Z,54.25
2023-12-20T05:40:40.994Z,53.04
2023-12-20T05:41:41.019Z,53.76
2023-12-20T05:42:41.093Z,53.21
2023-12-20T05:43:41.129Z,52.51
2023-12-20T05:44:41.146Z,52.33
2023-12-20T05:45:41.227Z,53.06
2023-12-20T05:46:41.199Z,52.68
2023-12-20T05:47:41.269Z,52.79
2023-12-20T05:48:41.368Z,53.78
2023-12-20T05:49:41.358Z,52.83
2023-12-20T05:50:41.377Z,54.72
2023-12-20T05:51:41.436Z,53.18
2023-12-20T05:52:41.471Z,53.35
2023-12-20T05:53:41.482Z,51.90
2023-12-20T05:54:41.595Z,54.74
2023-12-20T05:55:41.589Z,54.90
2023-12-20T05:56:41.608Z,55.16
2023-12-20T05:57:41.692Z,54.46
2023-12-20T05:58:41.730Z,54.58
2023-12-20T05:59:41.778Z,56.87
2023-12-20T06:00:41.998Z,63.41
2023-12-20T06:01:41.943Z,68.61
2023-12-20T06:02:41.948Z,73.20
2023-12-20T06:03:41.984Z,73.84
2023-12-20T06:04:42.098Z,76.40
2023-12-20T06:05:41.991Z,77.39
2023-12-20T06:06:42.055Z,76.11
2023-12-20T06:07:42.157Z,77.20
2023-12-20T06:08:42.084Z,74.96
2023-12-20T06:09:42.172Z,73.08
2023-12-20T06:10:42.219Z,69.51
2023-12-20T06:11:42.252Z,70.20
2023-12-20T06:12:42.355Z,68.47
2023-12-20T06:13:42.359Z,68.04
2023-12-20T06:14:42.407Z,69.12
2023-12-20T06:15:42.576Z,68.65
2023-12-20T06:16:42.525Z,69.73
2023-12-20T06:17:42.795Z,69.27
2023-12-20T06:18:42.748Z,68.24
2023-12-20T06:19:42.853Z,68.51
2023-12-20T06:20:42.826Z,68.99
2023-12-20T06:21:45.239Z,69.70
2023-12-20T06:22:42.855Z,67.57
2023-12-20T06:23:42.868Z,69.30
2023-12-20T06:24:42.935Z,68.84
2023-12-20T06:25:42.882Z,66.36
2023-12-20T06:26:42.878Z,64.43
2023-12-20T06:27:42.957Z,63.35
2023-12-20T06:28:42.909Z,71.36
2023-12-20T06:29:42.975Z,71.77
2023-12-20T06:30:42.944Z,70.54
2023-12-20T06:31:43.059Z,67.51
2023-12-20T06:32:42.903Z,66.09
2023-12-20T06:33:42.927Z,64.50
2023-12-20T06:34:42.991Z,62.89
2023-12-20T06:35:42.884Z,62.91
2023-12-20T06:36:42.976Z,64.47
2023-12-20T06:37:43.065Z,60.11
2023-12-20T06:38:42.866Z,55.84
2023-12-20T06:39:42.899Z,52.35
2023-12-20T06:40:42.942Z,50.88
2023-12-20T06:41:43.008Z,52.44
2023-12-20T06:42:47.574Z,50.47
2023-12-20T06:43:49.925Z,50.53
2023-12-20T06:44:43.907Z,50.53
2023-12-20T06:45:42.994Z,47.99
2023-12-20T06:46:42.896Z,46.63
2023-12-20T06:47:43.061Z,49.60
2023-12-20T06:48:43.056Z,51.23
2023-12-20T06:49:43.026Z,53.20
2023-12-20T06:50:42.895Z,53.28
2023-12-20T06:52:04.997Z,55.09
2023-12-20T06:52:42.909Z,55.46
2023-12-20T06:53:42.884Z,56.36
2023-12-20T06:54:42.925Z,57.50
2023-12-20T06:55:42.896Z,59.81
2023-12-20T06:56:43.004Z,63.17
2023-12-20T06:57:43.022Z,63.88
2023-12-20T06:58:43.441Z,64.41
2023-12-20T06:59:43.016Z,62.96
2023-12-20T07:00:42.977Z,62.79
2023-12-20T07:01:42.993Z,64.32
2023-12-20T07:02:42.917Z,65.44
2023-12-20T07:03:43.026Z,69.29
2023-12-20T07:04:42.997Z,72.12
2023-12-20T07:05:42.897Z,72.98
2023-12-20T07:06:42.973Z,71.54
2023-12-20T07:07:43.032Z,71.18
2023-12-20T07:08:42.939Z,70.45
2023-12-20T07:09:43.022Z,72.12
2023-12-20T07:10:42.905Z,73.42
2023-12-20T07:11:42.912Z,73.94
2023-12-20T07:12:42.959Z,74.59
2023-12-20T07:13:42.909Z,75.59
2023-12-20T07:14:42.933Z,75.52
2023-12-20T07:15:44.901Z,73.54
2023-12-20T07:16:42.950Z,76.54
2023-12-20T07:17:43.040Z,77.80
2023-12-20T07:18:43.041Z,78.09
2023-12-20T07:19:43.044Z,78.84
2023-12-20T07:20:42.938Z,77.60
2023-12-20T07:21:43.031Z,78.64
2023-12-20T07:22:43.016Z,78.58
2023-12-20T07:23:43.072Z,80.55
2023-12-20T07:24:43.268Z,78.23
2023-12-20T07:25:43.189Z,76.23
2023-12-20T07:26:43.305Z,77.30
2023-12-20T07:27:45.533Z,80.11
2023-12-20T07:28:43.517Z,79.33
2023-12-20T07:29:43.582Z,81.02
2023-12-20T07:30:43.715Z,81.53
2023-12-20T07:31:43.644Z,79.33
2023-12-20T07:32:43.719Z,82.06
2023-12-20T07:33:43.877Z,83.71
2023-12-20T07:34:44.834Z,80.00
2023-12-20T07:35:44.031Z,82.70
2023-12-20T07:36:43.973Z,84.28
2023-12-20T07:37:44.264Z,81.93
2023-12-20T07:38:44.018Z,83.93
2023-12-20T07:39:44.256Z,86.30
2023-12-20T07:40:44.104Z,83.87
2023-12-20T07:41:45.750Z,85.96
2023-12-20T07:42:44.167Z,83.71
2023-12-20T07:43:44.171Z,86.03
2023-12-20T07:44:44.223Z,87.70
2023-12-20T07:45:44.182Z,84.42
2023-12-20T07:46:44.177Z,83.69
2023-12-20T07:47:44.412Z,86.01
2023-12-20T07:48:46.210Z,85.34
2023-12-20T07:49:44.313Z,85.38
2023-12-20T07:50:44.159Z,85.38
2023-12-20T07:51:44.283Z,86.37
2023-12-20T07:52:44.147Z,88.00
2023-12-20T07:53:44.192Z,89.71
2023-12-20T07:54:44.405Z,88.22
2023-12-20T07:55:44.239Z,91.19
2023-12-20T07:56:44.240Z,90.83
2023-12-20T07:57:44.539Z,91.53
2023-12-20T07:58:50.841Z,88.90
2023-12-20T07:59:45.528Z,89.03
2023-12-20T08:00:44.334Z,89.11
2023-12-20T08:01:44.406Z,89.62
2023-12-20T08:02:44.303Z,89.47
2023-12-20T08:03:44.367Z,92.28
2023-12-20T08:04:44.435Z,93.40
2023-12-20T08:05:44.303Z,91.18
2023-12-20T08:06:44.446Z,90.44
2023-12-20T08:07:44.539Z,92.03
2023-12-20T08:08:45.556Z,95.44
2023-12-20T08:09:44.477Z,94.47
2023-12-20T08:10:44.306Z,93.20
2023-12-20T08:11:44.324Z,92.88
2023-12-20T08:12:44.356Z,91.86
2023-12-20T08:13:44.304Z,93.18
2023-12-20T08:14:44.582Z,93.85
2023-12-20T08:15:44.423Z,94.54
2023-12-20T08:16:44.350Z,93.71
2023-12-20T08:17:44.676Z,91.87
2023-12-20T08:18:44.449Z,93.06
2023-12-20T08:19:44.497Z,94.22
2023-12-20T08:20:44.396Z,95.70
2023-12-20T08:21:44.459Z,92.20
2023-12-20T08:22:44.315Z,92.88
2023-12-20T08:23:44.325Z,98.53
2023-12-20T08:24:44.385Z,98.10
2023-12-20T08:25:44.341Z,98.41
2023-12-20T08:26:44.329Z,98.00
2023-12-20T08:27:44.816Z,101.60
2023-12-20T08:28:44.366Z,100.02
2023-12-20T08:29:44.408Z,100.49
2023-12-20T08:30:44.553Z,103.37
2023-12-20T08:31:44.363Z,105.29
2023-12-20T08:32:44.374Z,102.93
2023-12-20T08:33:44.487Z,108.20
2023-12-20T08:34:44.595Z,108.28
2023-12-20T08:35:44.350Z,109.02
2023-12-20T08:36:44.351Z,109.00
2023-12-20T08:37:44.496Z,109.08
2023-12-20T08:38:44.373Z,109.78
2023-12-20T08:39:46.099Z,112.37
2023-12-20T08:40:44.365Z,111.42
2023-12-20T08:41:44.388Z,111.04
2023-12-20T08:42:44.475Z,111.70
2023-12-20T08:43:44.457Z,113.09
2023-12-20T08:44:44.557Z,114.30
2023-12-20T08:45:44.506Z,111.66
2023-12-20T08:46:44.506Z,113.35
2023-12-20T08:47:44.912Z,112.06
2023-12-20T08:48:44.897Z,114.40
2023-12-20T08:49:45.538Z,113.41
2023-12-20T08:50:44.773Z,115.15
2023-12-20T08:51:44.820Z,114.15
2023-12-20T08:52:45.307Z,113.34
2023-12-20T08:53:44.704Z,114.02
2023-12-20T08:54:45.749Z,111.35
2023-12-20T08:55:44.750Z,113.26
2023-12-20T08:56:45.539Z,109.87
2023-12-20T08:57:45.019Z,107.32
2023-12-20T08:58:44.840Z,106.44
2023-12-20T08:59:44.868Z,110.14
2023-12-20T09:00:44.993Z,108.78
2023-12-20T09:02:07.157Z,109.52
2023-12-20T09:02:44.914Z,109.86
2023-12-20T09:03:45.204Z,110.21
2023-12-20T09:04:45.033Z,109.78
2023-12-20T09:05:44.921Z,108.41
2023-12-20T09:06:44.976Z,109.71
2023-12-20T09:07:45.301Z,109.11
2023-12-20T09:08:44.937Z,107.21
2023-12-20T09:09:44.957Z,103.68
2023-12-20T09:12:31.088Z,103.84
2023-12-20T09:13:08.376Z,105.41
2023-12-20T09:14:08.332Z,108.96
2023-12-20T09:15:08.295Z,112.02
2023-12-20T09:16:08.341Z,115.65
2023-12-20T09:17:08.310Z,118.35
2023-12-20T09:18:08.352Z,116.68
2023-12-20T09:19:08.463Z,115.09
2023-12-20T09:20:08.520Z,112.20
2023-12-20T09:21:08.298Z,110.06
2023-12-20T09:22:08.333Z,111.76
2023-12-20T09:23:08.325Z,109.25
2023-12-20T09:24:09.218Z,111.50
2023-12-20T09:25:08.342Z,110.58
2023-12-20T09:26:08.353Z,111.65
2023-12-20T09:27:08.309Z,110.24
2023-12-20T09:28:08.318Z,108.94
2023-12-20T09:29:08.405Z,109.87
2023-12-20T09:30:08.476Z,105.50
2023-12-20T09:31:08.531Z,107.65
2023-12-20T09:32:08.548Z,105.92
2023-12-20T09:33:08.759Z,103.25
2023-12-20T09:34:08.777Z,104.06
2023-12-20T09:35:08.839Z,104.13
2023-12-20T09:36:08.811Z,105.95
2023-12-20T09:37:08.902Z,103.46
2023-12-20T09:38:08.875Z,101.88
2023-12-20T09:39:08.900Z,103.19
2023-12-20T09:40:09.001Z,101.41
2023-12-20T09:41:08.966Z,100.31
2023-12-20T09:42:09.012Z,101.38
2023-12-20T09:43:09.093Z,102.69
2023-12-20T09:44:09.165Z,101.48
2023-12-20T09:45:09.151Z,103.37
2023-12-20T09:46:09.400Z,100.55
2023-12-20T09:47:09.280Z,99.80
2023-12-20T09:48:09.359Z,100.76
2023-12-20T09:49:09.459Z,100.29
2023-12-20T09:50:09.490Z,100.30
2023-12-20T09:51:09.476Z,101.21
2023-12-20T09:52:09.566Z,99.36
2023-12-20T09:53:09.602Z,98.95
2023-12-20T09:54:09.676Z,97.78
2023-12-20T09:55:09.762Z,97.58
2023-12-20T09:56:09.774Z,98.70
2023-12-20T09:57:09.814Z,100.39
2023-12-20T09:58:09.949Z,99.25
2023-12-20T09:59:10.041Z,99.01
2023-12-20T10:00:09.984Z,99.00
2023-12-20T10:01:10.117Z,99.05
2023-12-20T10:02:10.205Z,100.10
2023-12-20T10:03:10.144Z,98.69
2023-12-20T10:04:11.627Z,98.76
2023-12-20T10:05:10.472Z,99.41
2023-12-20T10:06:10.387Z,95.48
2023-12-20T10:07:33.274Z,98.04
2023-12-20T10:08:10.362Z,98.41
2023-12-20T10:09:10.502Z,98.75
2023-12-20T10:10:10.286Z,99.15
2023-12-20T10:11:10.225Z,99.55
2023-12-20T10:12:10.260Z,99.96
2023-12-20T10:13:11.166Z,98.85
2023-12-20T10:14:10.505Z,98.44
2023-12-20T10:15:11.111Z,97.54
2023-12-20T10:16:10.509Z,95.57
2023-12-20T10:17:10.550Z,99.16
2023-12-20T10:18:10.722Z,97.30
2023-12-20T10:19:10.838Z,96.51
2023-12-20T10:20:10.767Z,97.25
2023-12-20T10:21:10.714Z,97.48
2023-12-20T10:22:10.800Z,94.46
2023-12-20T10:23:10.815Z,95.46
2023-12-20T10:24:10.901Z,95.04
2023-12-20T10:25:10.965Z,93.57
2023-12-20T10:26:11.264Z,95.93
2023-12-20T10:27:11.021Z,95.08
2023-12-20T10:28:11.087Z,92.52
2023-12-20T10:29:11.139Z,93.75
2023-12-20T10:30:11.239Z,87.47
2023-12-20T10:31:11.335Z,86.86
2023-12-20T10:32:11.284Z,88.11
2023-12-20T10:33:11.813Z,85.66
2023-12-20T10:34:11.494Z,83.21
2023-12-20T10:35:11.521Z,82.21
2023-12-20T10:36:11.528Z,82.51
2023-12-20T10:37:11.524Z,82.11
2023-12-20T10:38:11.578Z,82.85
2023-12-20T10:39:11.626Z,83.38
2023-12-20T10:40:11.862Z,79.08
2023-12-20T10:41:11.736Z,83.73
2023-12-20T10:42:11.812Z,83.75
2023-12-20T10:43:11.936Z,87.05
2023-12-20T10:44:11.973Z,85.73
2023-12-20T10:45:12.032Z,86.92
2023-12-20T10:46:12.115Z,89.40
2023-12-20T10:47:12.119Z,90.29
2023-12-20T10:48:12.437Z,91.27
2023-12-20T10:49:12.338Z,90.45
2023-12-20T10:50:12.442Z,90.94
2023-12-20T10:51:12.371Z,91.98
2023-12-20T10:52:12.397Z,92.09
2023-12-20T10:53:12.518Z,92.03
2023-12-20T10:54:12.483Z,91.58
2023-12-20T10:55:12.570Z,91.83
2023-12-20T10:56:12.580Z,91.77
2023-12-20T10:57:12.640Z,91.59
2023-12-20T10:58:12.712Z,91.46
2023-12-20T10:59:12.872Z,90.93
2023-12-20T11:00:12.793Z,90.63
2023-12-20T11:01:12.935Z,89.80
2023-12-20T11:02:13.081Z,90.51
2023-12-20T11:03:12.947Z,88.50
2023-12-20T11:04:13.149Z,90.24
2023-12-20T11:05:13.229Z,91.59
2023-12-20T11:06:13.146Z,90.98
2023-12-20T11:07:13.221Z,90.53
2023-12-20T11:08:13.206Z,90.42
2023-12-20T11:09:13.462Z,88.36
2023-12-20T11:10:13.349Z,90.53
2023-12-20T11:11:13.370Z,88.25
2023-12-20T11:12:13.425Z,89.93
2023-12-20T11:13:13.818Z,87.90
2023-12-20T11:14:13.561Z,84.95
2023-12-20T11:15:13.576Z,89.83
2023-12-20T11:16:13.658Z,88.82
2023-12-20T11:17:13.747Z,87.25
2023-12-20T11:18:13.770Z,89.42
2023-12-20T11:19:13.853Z,85.55
2023-12-20T11:20:13.950Z,86.10
2023-12-20T11:21:13.855Z,85.31
2023-12-20T11:22:13.955Z,83.30
2023-12-20T11:23:36.699Z,82.46
2023-12-20T11:24:13.967Z,82.83
2023-12-20T11:25:14.192Z,83.77
2023-12-20T11:26:13.948Z,83.99
2023-12-20T11:27:13.964Z,85.25
2023-12-20T11:28:13.986Z,88.16
2023-12-20T11:29:13.978Z,87.15
2023-12-20T11:30:13.961Z,86.64
2023-12-20T11:31:36.038Z,86.30
2023-12-20T11:32:13.936Z,86.66
2023-12-20T11:33:13.982Z,87.36
2023-12-20T11:34:14.108Z,87.44
2023-12-20T11:35:14.038Z,86.82
2023-12-20T11:36:13.994Z,89.20
2023-12-20T11:37:14.063Z,88.08
2023-12-20T11:38:14.016Z,86.92
2023-12-20T11:39:14.148Z,86.22
2023-12-20T11:40:14.028Z,88.33
2023-12-20T11:41:13.965Z,85.96
2023-12-20T11:42:13.963Z,85.48
2023-12-20T11:43:13.984Z,88.24
2023-12-20T11:44:14.040Z,85.23
2023-12-20T11:45:13.971Z,85.79
2023-12-20T11:46:13.974Z,85.25
2023-12-20T11:47:15.911Z,84.21
2023-12-20T11:48:14.037Z,88.79
2023-12-20T11:49:14.265Z,87.06
2023-12-20T11:50:14.054Z,86.22
2023-12-20T11:51:14.098Z,85.43
2023-12-20T11:52:14.032Z,86.34
2023-12-20T11:53:13.990Z,86.41
2023-12-20T11:54:14.060Z,87.17
2023-12-20T11:55:14.021Z,86.32
2023-12-20T11:56:13.997Z,86.04
2023-12-20T11:57:14.013Z,84.40
2023-12-20T11:58:14.094Z,84.88
2023-12-20T11:59:22.730Z,86.22
2023-12-20T12:00:15.070Z,86.29
2023-12-20T12:01:14.155Z,85.49
2023-12-20T12:02:14.153Z,85.31
2023-12-20T12:03:14.092Z,86.09
2023-12-20T12:04:14.188Z,84.57
2023-12-20T12:05:14.166Z,83.42
2023-12-20T12:06:14.120Z,84.53
2023-12-20T12:07:14.140Z,82.96
2023-12-20T12:08:14.912Z,82.66
2023-12-20T12:09:14.177Z,82.61
2023-12-20T12:10:14.164Z,80.13
2023-12-20T12:11:14.105Z,82.91
2023-12-20T12:12:14.631Z,81.31
2023-12-20T12:13:14.193Z,82.96
2023-12-20T12:14:14.970Z,85.43
2023-12-20T12:15:14.165Z,85.92
2023-12-20T12:16:14.380Z,83.07
2023-12-20T12:17:14.286Z,80.38
2023-12-20T12:18:14.306Z,80.25
2023-12-20T12:19:14.315Z,81.39
2023-12-20T12:20:14.392Z,83.56
2023-12-20T12:21:18.968Z,81.55
2023-12-20T12:22:16.133Z,81.58
2023-12-20T12:23:14.350Z,81.44
2023-12-20T12:24:14.360Z,81.89
2023-12-20T12:25:14.413Z,78.96
2023-12-20T12:26:14.668Z,81.53
2023-12-20T12:27:14.356Z,78.58
2023-12-20T12:28:14.428Z,77.95
2023-12-20T12:29:14.480Z,79.16
2023-12-20T12:30:14.470Z,78.08
2023-12-20T12:31:14.399Z,83.18
2023-12-20T12:32:14.497Z,77.77
2023-12-20T12:33:14.500Z,79.43
2023-12-20T12:34:14.559Z,78.32
2023-12-20T12:35:14.466Z,78.32
2023-12-20T12:36:14.608Z,76.99
2023-12-20T12:37:14.558Z,75.74
2023-12-20T12:38:15.197Z,79.71
2023-12-20T12:39:14.596Z,76.34
2023-12-20T12:40:14.696Z,78.70
2023-12-20T12:41:14.754Z,75.61
2023-12-20T12:42:14.676Z,76.13
2023-12-20T12:43:14.738Z,75.88
2023-12-20T12:44:18.011Z,74.77
2023-12-20T12:45:14.779Z,74.61
2023-12-20T12:46:14.810Z,73.00
2023-12-20T12:47:14.778Z,72.66
2023-12-20T12:48:14.815Z,71.83
2023-12-20T12:49:14.903Z,73.35
2023-12-20T12:50:14.842Z,70.10
2023-12-20T12:51:15.005Z,70.08
2023-12-20T12:52:14.788Z,70.61
2023-12-20T12:53:14.776Z,69.36
2023-12-20T12:54:14.781Z,70.74
2023-12-20T12:55:14.852Z,68.64
2023-12-20T12:56:14.887Z,70.47
2023-12-20T12:57:14.799Z,70.69
2023-12-20T12:58:14.911Z,69.92
2023-12-20T12:59:14.792Z,69.07
2023-12-20T13:00:14.786Z,69.17
2023-12-20T13:01:14.846Z,68.12
2023-12-20T13:02:14.966Z,69.21
2023-12-20T13:03:14.798Z,65.15
2023-12-20T13:04:14.921Z,65.14
2023-12-20T13:05:15.097Z,69.20
2023-12-20T13:06:14.821Z,66.27
2023-12-20T13:07:14.890Z,65.87
2023-12-20T13:08:14.798Z,68.52
2023-12-20T13:09:14.911Z,67.61
2023-12-20T13:10:14.820Z,68.64
2023-12-20T13:11:14.826Z,67.99
2023-12-20T13:12:14.812Z,65.00
2023-12-20T13:13:14.862Z,66.15
2023-12-20T13:14:14.912Z,66.18
2023-12-20T13:15:14.918Z,65.59
2023-12-20T13:16:14.833Z,66.97
2023-12-20T13:17:14.815Z,65.46
2023-12-20T13:18:14.935Z,65.30
2023-12-20T13:19:15.149Z,67.57
2023-12-20T13:20:14.873Z,64.04
2023-12-20T13:21:14.828Z,66.28
2023-12-20T13:22:14.902Z,62.97
2023-12-20T13:23:14.843Z,65.18
2023-12-20T13:24:14.813Z,65.75
2023-12-20T13:25:14.879Z,62.78
2023-12-20T13:26:14.813Z,63.66
2023-12-20T13:27:14.822Z,64.55
2023-12-20T13:28:14.935Z,68.26
2023-12-20T13:29:14.844Z,63.83
2023-12-20T13:30:14.929Z,63.29
2023-12-20T13:31:14.911Z,60.92
2023-12-20T13:32:14.944Z,63.70
2023-12-20T13:33:14.845Z,62.61
2023-12-20T13:34:15.038Z,63.06
2023-12-20T13:35:14.965Z,61.70
2023-12-20T13:36:14.876Z,61.30
2023-12-20T13:37:14.878Z,63.50
2023-12-20T13:38:14.838Z,61.86
2023-12-20T13:39:14.929Z,64.01
2023-12-20T13:40:14.975Z,61.59
2023-12-20T13:41:14.966Z,62.45
2023-12-20T13:42:15.007Z,64.14
2023-12-20T13:43:15.269Z,62.52
2023-12-20T13:44:15.176Z,62.05
2023-12-20T13:45:15.161Z,64.70
2023-12-20T13:46:15.282Z,62.67
2023-12-20T13:47:15.221Z,63.34
2023-12-20T13:48:15.281Z,64.07
2023-12-20T13:49:15.565Z,62.66
2023-12-20T13:50:15.356Z,63.27
2023-12-20T13:51:15.418Z,63.29
2023-12-20T13:52:15.496Z,60.88
2023-12-20T13:53:15.476Z,60.48
2023-12-20T13:54:15.576Z,61.36
2023-12-20T13:55:15.688Z,63.50
2023-12-20T13:56:15.647Z,62.79
2023-12-20T13:57:22.168Z,61.41
2023-12-20T13:58:16.739Z,61.48
2023-12-20T13:59:15.824Z,61.78
2023-12-20T14:00:16.126Z,60.94
2023-12-20T14:01:15.755Z,61.11
2023-12-20T14:02:15.707Z,62.31
2023-12-20T14:03:15.695Z,61.00
2023-12-20T14:04:40.260Z,60.54
2023-12-20T14:05:16.887Z,60.58
2023-12-20T14:06:15.706Z,58.17
2023-12-20T14:07:15.787Z,59.50
2023-12-20T14:08:15.773Z,60.89
2023-12-20T14:09:15.829Z,62.02
2023-12-20T14:10:15.752Z,59.44
2023-12-20T14:11:15.718Z,62.06
2023-12-20T14:12:15.778Z,60.24
2023-12-20T14:13:15.797Z,60.76
2023-12-20T14:14:15.811Z,58.82
2023-12-20T14:15:15.934Z,58.05
2023-12-20T14:16:15.962Z,59.09
2023-12-20T14:17:15.964Z,58.05
2023-12-20T14:18:16.078Z,59.69
2023-12-20T14:19:16.226Z,59.07
2023-12-20T14:20:16.170Z,57.17
2023-12-20T14:21:16.199Z,57.06
2023-12-20T14:22:16.327Z,59.58
2023-12-20T14:23:16.331Z,58.52
2023-12-20T14:24:16.394Z,57.23
2023-12-20T14:25:16.583Z,58.42
2023-12-20T14:26:16.497Z,57.63
2023-12-20T14:27:16.541Z,57.40
2023-12-20T14:28:16.651Z,56.75
2023-12-20T14:29:16.808Z,57.95
2023-12-20T14:30:16.759Z,55.26
2023-12-20T14:31:16.808Z,58.20
2023-12-20T14:32:16.873Z,58.29
2023-12-20T14:33:16.936Z,56.77
2023-12-20T14:34:17.120Z,59.73
2023-12-20T14:35:17.248Z,57.13
2023-12-20T14:36:17.129Z,57.34
2023-12-20T14:37:17.214Z,57.47
2023-12-20T14:38:17.254Z,60.32
2023-12-20T14:39:17.390Z,54.74
2023-12-20T14:40:17.457Z,56.23
2023-12-20T14:41:17.416Z,54.67
2023-12-20T14:42:17.538Z,57.24
2023-12-20T14:43:17.572Z,56.77
2023-12-20T14:44:17.766Z,57.00
2023-12-20T14:45:17.676Z,56.37
2023-12-20T14:46:17.766Z,54.62
2023-12-20T14:47:17.813Z,53.80
2023-12-20T14:48:17.908Z,55.43
2023-12-20T14:49:18.089Z,53.11
2023-12-20T14:50:18.058Z,56.57
2023-12-20T14:51:18.059Z,54.71
2023-12-20T14:52:18.223Z,52.47
2023-12-20T14:53:19.502Z,52.68
2023-12-20T14:54:18.266Z,54.70
2023-12-20T14:55:18.491Z,57.33
2023-12-20T14:56:18.200Z,55.44
2023-12-20T14:57:18.213Z,54.47
2023-12-20T14:58:18.389Z,53.80
2023-12-20T14:59:18.210Z,51.18
2023-12-20T15:00:18.329Z,54.99
2023-12-20T15:01:18.371Z,53.22
2023-12-20T15:02:18.292Z,53.67
2023-12-20T15:03:18.369Z,53.12
2023-12-20T15:04:20.521Z,52.72
2023-12-20T15:05:18.221Z,52.80
2023-12-20T15:06:18.319Z,51.84
2023-12-20T15:07:18.240Z,53.04
2023-12-20T15:08:18.299Z,55.42
2023-12-20T15:09:18.225Z,52.97
2023-12-20T15:10:18.321Z,53.24
2023-12-20T15:11:18.224Z,54.34
2023-12-20T15:12:18.241Z,52.13
2023-12-20T15:13:18.264Z,50.77
2023-12-20T15:14:18.245Z,51.84
2023-12-20T15:15:18.222Z,51.92
2023-12-20T15:16:18.277Z,53.45
2023-12-20T15:17:18.236Z,51.03
2023-12-20T15:18:18.358Z,52.86
2023-12-20T15:19:18.365Z,52.05
2023-12-20T15:20:18.290Z,54.65
2023-12-20T15:21:18.241Z,54.21
2023-12-20T15:22:18.254Z,53.67
2023-12-20T15:23:18.351Z,52.92
2023-12-20T15:24:18.260Z,50.30
2023-12-20T15:25:18.244Z,50.29
2023-12-20T15:26:18.237Z,51.96
2023-12-20T15:27:18.255Z,54.30
2023-12-20T15:28:18.316Z,52.43
2023-12-20T15:29:18.238Z,53.95
2023-12-20T15:30:18.290Z,53.45
2023-12-20T15:31:18.321Z,50.89
2023-12-20T15:32:18.256Z,54.01
2023-12-20T15:33:18.374Z,53.28
2023-12-20T15:34:18.377Z,54.82
2023-12-20T15:35:18.487Z,52.81
2023-12-20T15:36:18.474Z,54.04
2023-12-20T15:37:18.634Z,53.39
2023-12-20T15:38:18.819Z,53.26
2023-12-20T15:39:18.680Z,53.21
2023-12-20T15:40:18.804Z,51.34
2023-12-20T15:41:18.799Z,54.25
2023-12-20T15:42:18.867Z,52.40
2023-12-20T15:43:18.977Z,54.59
2023-12-20T15:44:18.974Z,53.03
2023-12-20T15:45:19.176Z,52.43
2023-12-20T15:46:19.184Z,54.44
2023-12-20T15:47:19.218Z,54.08
2023-12-20T15:48:19.274Z,53.32
2023-12-20T15:49:19.436Z,54.23
2023-12-20T15:50:19.558Z,52.74
2023-12-20T15:51:19.423Z,54.91
2023-12-20T15:52:19.517Z,50.98
2023-12-20T15:53:19.566Z,56.46
2023-12-20T15:54:19.623Z,52.89
2023-12-20T15:55:19.820Z,53.56
2023-12-20T15:56:19.749Z,54.84
2023-12-20T15:57:21.773Z,55.73
2023-12-20T15:58:19.829Z,53.65
2023-12-20T15:59:19.835Z,55.58
2023-12-20T16:00:19.911Z,54.47
2023-12-20T16:01:19.940Z,53.98
2023-12-20T16:02:19.920Z,52.74
2023-12-20T16:03:24.849Z,54.94
2023-12-20T16:05:44.815Z,55.10
2023-12-20T16:06:19.844Z,55.72
2023-12-20T16:07:19.978Z,57.75
2023-12-20T16:08:42.850Z,59.88
2023-12-20T16:09:19.864Z,55.47
2023-12-20T16:10:19.982Z,56.80
2023-12-20T16:11:19.964Z,58.79
2023-12-20T16:12:19.837Z,59.20
2023-12-20T16:13:19.896Z,60.87
2023-12-20T16:14:19.841Z,59.31
2023-12-20T16:15:42.187Z,57.47
2023-12-20T16:16:19.958Z,57.82
2023-12-20T16:17:42.840Z,58.54
2023-12-20T16:18:19.918Z,57.94
2023-12-20T16:19:19.950Z,59.03
2023-12-20T16:20:19.943Z,59.63
2023-12-20T16:21:19.887Z,59.64
2023-12-20T16:22:19.943Z,60.45
2023-12-20T16:23:19.855Z,58.20
2023-12-20T16:24:19.855Z,60.10
2023-12-20T16:25:20.012Z,59.54
2023-12-20T16:26:19.847Z,55.98
2023-12-20T16:27:19.873Z,56.09
2023-12-20T16:28:19.894Z,56.42
2023-12-20T16:29:19.869Z,55.87
2023-12-20T16:30:19.961Z,51.94
2023-12-20T16:31:19.915Z,53.21
2023-12-20T16:32:19.857Z,56.77
2023-12-20T16:33:20.022Z,54.31
2023-12-20T16:34:19.956Z,52.46
2023-12-20T16:35:19.910Z,54.39
2023-12-20T16:36:19.869Z,52.31
2023-12-20T16:37:19.942Z,54.86
2023-12-20T16:38:19.974Z,52.89
2023-12-20T16:39:23.350Z,53.09
2023-12-20T16:40:20.071Z,53.21
2023-12-20T16:41:20.011Z,54.33
2023-12-20T16:42:20.030Z,55.76
2023-12-20T16:43:20.080Z,56.33
2023-12-20T16:44:20.012Z,56.77
2023-12-20T16:45:20.029Z,56.61
2023-12-20T16:46:20.043Z,57.27
2023-12-20T16:47:20.019Z,58.86
2023-12-20T16:48:20.104Z,55.38
2023-12-20T16:49:20.140Z,57.52
2023-12-20T16:50:20.322Z,54.25